Latest Weather Observations for Terrey Hills

IDN60801

Issued at 9:32 pm EST Sunday 26 April 2015 (issued every 30 minutes, with the page automatically refreshed every 10 minutes)

About weather observations | Map of weather stations | Latest weather observations for NSW | Other Formats
Station Details ID: 066059 Name: TERREY HILLS AWS Lat: -33.69 Lon: 151.23 Height: 199.0 m
Data from the previous 72 hours. | See also: Recent months at Terrey Hills
Date/Time
EST
Temp
°C
App
Temp
°C
Dew
Point
Rel
Hum
%
Delta-T
°C
Wind Press
QNH
hPa
Press
MSL
hPa
Rain
since 9 am
mm
Dir
 
Spd
km/h
Gust
km/h
Spd
kts
Gust
kts
26/09:30pm 14.4 13.0 11.0 80 1.8 WSW 9 15 5 8 - - 3.4
26/09:00pm 14.3 12.9 10.9 80 1.8 WSW 9 17 5 9 - - 3.4
26/08:30pm 14.8 13.2 11.4 80 1.8 SW 11 19 6 10 - - 3.4
26/08:00pm 14.7 12.7 11.5 81 1.7 SW 13 20 7 11 - - 3.4
26/07:30pm 14.7 13.1 11.7 82 1.6 SW 11 19 6 10 - - 3.4
26/07:00pm 14.8 12.7 11.2 79 1.9 SSW 13 20 7 11 - - 3.4
26/06:30pm 15.0 12.7 10.6 75 2.3 SW 13 24 7 13 - - 3.4
26/06:00pm 15.6 13.0 10.8 73 2.6 SW 15 26 8 14 - - 3.4
26/05:30pm 15.4 13.8 11.4 77 2.2 WSW 11 20 6 11 - - 3.4
26/05:00pm 15.5 13.9 11.5 77 2.2 SW 11 19 6 10 - - 3.4
26/04:30pm 15.9 13.1 11.5 75 2.4 SW 17 30 9 16 - - 3.2
26/04:00pm 15.9 12.9 11.9 77 2.2 SW 19 37 10 20 - - 3.2
26/03:30pm 15.9 12.8 12.1 78 2.1 SW 20 39 11 21 - - 3.2
26/02:30pm 14.0 12.4 12.7 92 0.7 SW 13 22 7 12 - - 3.2
26/02:00pm 14.3 11.9 12.5 89 1.0 SW 17 24 9 13 - - 2.8
26/01:30pm 14.1 11.1 12.1 88 1.1 SW 19 35 10 19 - - 2.4
26/01:00pm 14.1 11.4 11.8 86 1.2 SW 17 28 9 15 - - 1.8
26/12:30pm 14.3 12.6 12.3 88 1.1 WSW 13 26 7 14 - - 0.8
26/12:00pm 14.0 12.2 12.2 89 1.0 WSW 13 22 7 12 - - 0.6
26/11:30am 14.4 12.3 12.3 87 1.2 W 15 28 8 15 - - 0.4
26/11:00am 14.2 11.5 11.7 85 1.4 W 17 30 9 16 - - 0.4
26/10:30am 13.5 11.6 11.7 89 1.0 W 13 24 7 13 - - 0.4
26/10:00am 13.3 10.8 11.2 87 1.1 W 15 32 8 17 - - 0.2
26/09:30am 13.2 10.5 10.4 83 1.5 W 15 32 8 17 - - 0.0
26/09:00am 13.0 10.7 10.5 85 1.3 W 13 26 7 14 - - 5.0
26/08:30am 12.8 10.8 10.3 85 1.3 W 11 22 6 12 - - 5.0
26/08:00am 12.4 10.0 10.1 86 1.2 WSW 13 24 7 13 - - 5.0
26/07:30am 12.1 9.4 10.2 88 1.0 WSW 15 24 8 13 - - 5.0
26/07:00am 11.5 9.1 10.2 92 0.7 WSW 13 20 7 11 - - 5.0
26/06:30am 11.2 9.3 10.6 96 0.3 WSW 11 17 6 9 - - 5.0
26/06:00am 10.8 8.5 10.6 99 0.1 WSW 13 19 7 10 - - 5.0
26/05:30am 10.8 8.5 10.5 98 0.2 WSW 13 19 7 10 - - 5.0
26/05:00am 10.5 8.9 10.2 98 0.2 W 9 15 5 8 - - 5.0
26/04:30am 10.8 8.8 10.2 96 0.3 W 11 15 6 8 - - 5.0
26/04:00am 11.3 9.4 10.5 95 0.4 W 11 17 6 9 - - 5.0
26/03:30am 11.5 9.7 10.7 95 0.4 WNW 11 22 6 12 - - 5.0
26/03:00am 11.3 9.4 10.5 95 0.4 WNW 11 19 6 10 - - 5.0
26/02:30am 11.7 10.5 10.3 91 0.7 W 7 13 4 7 - - 5.0
26/02:00am 12.0 9.6 9.9 87 1.1 SW 13 22 7 12 - - 5.0
26/01:30am 11.4 10.1 11.2 99 0.1 WNW 9 22 5 12 - - 4.4
26/01:00am 11.7 9.0 11.7 100 0.0 NW 17 33 9 18 - - 2.6
26/12:30am 11.6 8.8 11.4 99 0.1 WSW 17 24 9 13 - - 2.0
26/12:00am 11.2 10.2 11.0 99 0.1 WNW 7 9 4 5 - - 1.8
 
Date/Time
EST
Temp
°C
App
Temp
°C
Dew
Point
Rel
Hum
%
Delta-T
°C
Wind Press
QNH
hPa
Press
MSL
hPa
Rain
since 9 am
mm
Dir
 
Spd
km/h
Gust
km/h
Spd
kts
Gust
kts
25/11:30pm 11.3 10.3 11.0 98 0.2 WNW 7 13 4 7 - - 1.8
25/11:00pm 11.9 10.9 11.0 94 0.5 W 7 11 4 6 - - 1.8
25/10:30pm 13.2 11.3 10.6 84 1.4 S 11 19 6 10 - - 1.8
25/10:00pm 12.9 11.6 11.1 89 1.0 S 9 20 5 11 - - 1.8
25/09:30pm 13.1 11.2 11.7 91 0.8 SW 13 20 7 11 - - 1.8
25/09:00pm 13.1 11.4 12.3 95 0.4 SSW 13 20 7 11 - - 1.8
25/08:30pm 13.5 12.6 12.7 95 0.4 SW 9 19 5 10 - - 1.0
25/08:00pm 13.8 13.2 12.2 90 0.9 WSW 7 17 4 9 - - 0.8
25/07:30pm 14.4 13.0 12.1 86 1.3 SSW 11 19 6 10 - - 0.0
25/07:00pm 13.8 13.1 11.3 85 1.3 ESE 6 7 3 4 - - 0.0
25/06:30pm 13.3 11.9 10.8 85 1.3 E 9 15 5 8 - - 0.0
25/06:00pm 13.9 12.8 10.5 80 1.8 SE 7 11 4 6 - - 0.0
25/05:30pm 15.2 14.5 11.4 78 2.1 ESE 6 13 3 7 - - 0.0
25/05:00pm 18.1 16.8 12.5 70 3.1 SW 11 19 6 10 - - 0.0
25/04:30pm 18.5 17.8 13.1 71 3.1 NE 9 17 5 9 - - 0.0
25/04:00pm 19.0 18.3 13.2 69 3.3 NE 9 19 5 10 - - 0.0
25/03:30pm 20.6 20.6 13.6 64 4.1 NE 6 11 3 6 - - 0.0
25/03:00pm 21.1 20.6 12.8 59 4.8 NNE 7 17 4 9 - - 0.0
25/02:30pm 23.4 22.4 8.7 39 7.9 NW 4 7 2 4 - - 0.0
25/02:00pm 23.4 23.6 11.8 48 6.6 W 2 7 1 4 - - 0.0
25/01:30pm 22.1 21.5 11.8 52 5.8 N 6 15 3 8 - - 0.0
25/01:00pm 22.7 22.5 11.7 49 6.2 W 4 11 2 6 - - 0.0
25/12:30pm 22.6 22.0 11.7 50 6.2 WNW 6 13 3 7 - - 0.0
25/12:00pm 21.7 20.2 10.5 49 6.2 N 9 13 5 7 - - 0.0
25/11:30am 21.2 20.1 11.8 55 5.3 NNW 9 15 5 8 - - 0.0
25/11:00am 21.5 21.4 13.2 59 4.8 NNW 6 11 3 6 - - 0.0
25/10:30am 21.1 20.9 13.5 62 4.4 NNW 7 13 4 7 - - 0.0
25/10:00am 20.1 20.1 14.2 69 3.4 NNW 7 15 4 8 - - 0.0
25/09:30am 18.8 18.9 13.9 73 2.8 NW 6 11 3 6 - - 0.0
25/09:00am 18.4 18.4 13.5 73 2.8 NW 6 11 3 6 - - 0.0
25/08:30am 17.7 17.3 12.4 71 3.0 NW 6 11 3 6 - - 0.0
25/08:00am 16.3 15.9 12.5 78 2.1 NW 6 9 3 5 - - 0.0
25/07:30am 14.8 14.0 11.8 82 1.6 WNW 7 9 4 5 - - 0.0
25/07:00am 13.3 12.4 11.4 88 1.0 WNW 7 9 4 5 - - 0.0
25/06:30am 13.0 12.0 11.1 88 1.0 WNW 7 9 4 5 - - 0.0
25/06:00am 12.8 11.8 11.0 89 1.0 WNW 7 9 4 5 - - 0.0
25/05:30am 13.3 12.2 10.8 85 1.3 WNW 7 13 4 7 - - 0.0
25/05:00am 13.9 12.9 11.1 83 1.5 WNW 7 11 4 6 - - 0.0
25/04:30am 13.9 13.1 11.2 84 1.4 WNW 6 7 3 4 - - 0.0
25/04:00am 13.9 13.5 11.2 84 1.4 NW 4 7 2 4 - - 0.0
25/03:30am 14.0 13.1 11.5 85 1.3 WNW 7 9 4 5 - - 0.0
25/03:00am 14.3 14.0 11.6 84 1.5 NW 4 6 2 3 - - 0.0
25/02:30am 14.8 14.2 11.6 81 1.7 WNW 6 9 3 5 - - 0.0
25/02:00am 14.9 14.4 11.9 82 1.6 NW 6 9 3 5 - - 0.0
25/01:30am 14.5 13.8 12.0 85 1.4 WNW 7 11 4 6 - - 0.0
25/01:00am 14.7 14.2 12.0 84 1.5 WNW 6 7 3 4 - - 0.0
25/12:30am 15.4 14.9 12.2 81 1.8 WNW 6 9 3 5 - - 0.0
25/12:00am 15.8 15.4 12.4 80 1.9 WNW 6 9 3 5 - - 0.0
 
Date/Time
EST
Temp
°C
App
Temp
°C
Dew
Point
Rel
Hum
%
Delta-T
°C
Wind Press
QNH
hPa
Press
MSL
hPa
Rain
since 9 am
mm
Dir
 
Spd
km/h
Gust
km/h
Spd
kts
Gust
kts
24/11:30pm 15.7 15.2 12.8 83 1.6 WNW 7 9 4 5 - - 0.0
24/11:00pm 15.6 15.2 12.9 84 1.5 WNW 7 9 4 5 - - 0.0
24/10:30pm 16.7 16.2 12.8 78 2.2 WNW 7 11 4 6 - - 0.0
24/10:00pm 17.4 17.1 12.7 74 2.6 WNW 6 11 3 6 - - 0.0
24/09:30pm 17.8 17.6 12.9 73 2.8 WNW 6 11 3 6 - - 0.0
24/09:00pm 18.0 17.8 12.9 72 2.9 WNW 6 7 3 4 - - 0.0
24/08:30pm 18.6 18.1 13.7 73 2.8 WNW 9 13 5 7 - - 0.0
24/08:00pm 18.7 19.0 14.4 76 2.5 WNW 6 9 3 5 - - 0.0
24/07:30pm 18.9 19.6 14.4 75 2.6 WNW 4 6 2 3 - - 0.0
24/07:00pm 19.5 19.8 14.5 73 2.9 WNW 6 7 3 4 - - 0.0
24/06:30pm 19.4 19.9 14.9 75 2.7 WNW 6 11 3 6 - - 0.0
24/06:00pm 19.6 20.9 14.0 70 3.3 CALM 0 4 0 2 - - 0.0
24/05:30pm 20.5 21.1 14.2 67 3.7 NW 4 7 2 4 - - 0.0
24/05:00pm 21.4 21.6 14.3 64 4.2 NW 6 11 3 6 - - 0.0
24/04:30pm 22.6 23.6 14.4 60 4.9 NW 2 7 1 4 - - 0.0
24/04:00pm 24.1 24.6 15.1 57 5.4 WNW 6 15 3 8 - - 0.0
24/03:30pm 24.6 25.7 15.5 57 5.5 WNW 4 9 2 5 - - 0.0
24/03:00pm 24.5 25.7 16.0 59 5.2 WNW 4 9 2 5 - - 0.0
24/02:30pm 23.8 24.5 16.1 62 4.7 WNW 7 13 4 7 - - 0.0
24/02:00pm 22.4 23.1 16.2 68 3.8 N 7 15 4 8 - - 0.0
24/01:30pm 23.2 23.8 15.8 63 4.5 NW 7 17 4 9 - - 0.0
24/01:00pm 23.2 23.9 16.0 64 4.4 WNW 7 11 4 6 - - 0.0
24/12:30pm 22.7 22.9 15.8 65 4.2 W 9 17 5 9 - - 0.0
24/12:00pm 22.5 23.1 16.8 70 3.5 WNW 9 19 5 10 - - 0.0
24/11:30am 21.8 22.7 16.7 73 3.1 WNW 7 15 4 8 - - 0.0
24/11:00am 21.2 22.3 17.0 77 2.6 WNW 7 11 4 6 - - 0.0
24/10:30am 20.0 20.9 16.6 81 2.1 WNW 7 13 4 7 - - 0.0
24/10:00am 18.8 20.0 17.3 91 0.9 WNW 7 15 4 8 - - 0.0
24/09:30am 16.4 16.4 16.2 99 0.1 WNW 11 19 6 10 - - 0.0
24/09:00am 15.4 15.0 15.2 99 0.1 WNW 11 20 6 11 - - 0.2
24/08:30am 16.1 16.7 15.9 99 0.1 NNW 7 19 4 10 - - 0.2
24/08:00am 15.6 16.3 15.6 100 0.0 NW 6 13 3 7 - - 0.2
24/07:30am 15.4 16.0 15.4 100 0.0 NW 6 11 3 6 - - 0.2
24/07:00am 14.5 14.8 14.5 100 0.0 NW 6 13 3 7 - - 0.2
24/06:30am 14.3 14.3 14.3 100 0.0 NNW 7 13 4 7 - - 0.2
24/06:00am 14.4 14.5 14.4 100 0.0 NNW 7 11 4 6 - - 0.2
24/05:30am 14.4 14.7 14.4 100 0.0 NW 6 7 3 4 - - 0.2
24/05:00am 14.5 14.8 14.5 100 0.0 NW 6 7 3 4 - - 0.2
24/04:30am 14.4 14.7 14.4 100 0.0 WNW 6 7 3 4 - - 0.2
24/04:00am 14.3 14.5 14.3 100 0.0 WNW 6 7 3 4 - - 0.2
24/03:30am 14.3 14.5 14.3 100 0.0 WNW 6 7 3 4 - - 0.2
24/03:00am 14.1 14.1 14.1 100 0.0 WNW 7 9 4 5 - - 0.0
24/02:30am 14.3 14.3 14.3 100 0.0 WNW 7 9 4 5 - - 0.0
24/02:00am 14.3 14.3 14.3 100 0.0 WNW 7 7 4 4 - - 0.0
24/01:30am 14.5 14.8 14.5 100 0.0 WNW 6 7 3 4 - - 0.0
24/01:00am 14.6 14.9 14.6 100 0.0 WNW 6 7 3 4 - - 0.0
24/12:30am 14.9 15.2 14.9 100 0.0 WNW 7 9 4 5 - - 0.0
24/12:00am 15.1 15.4 15.1 100 0.0 W 7 9 4 5 - - 0.0
 
Date/Time
EST
Temp
°C
App
Temp
°C
Dew
Point
Rel
Hum
%
Delta-T
°C
Wind Press
QNH
hPa
Press
MSL
hPa
Rain
since 9 am
mm
Dir
 
Spd
km/h
Gust
km/h
Spd
kts
Gust
kts
23/11:30pm 15.0 15.5 15.0 100 0.0 WNW 6 7 3 4 - - 0.0
23/11:00pm 15.1 15.4 15.1 100 0.0 WNW 7 9 4 5 - - 0.0
23/10:30pm 15.6 16.1 15.6 100 0.0 W 7 7 4 4 - - 0.0
23/10:00pm 14.9 15.4 14.9 100 0.0 WNW 6 7 3 4 - - 0.0

Other Formats:

Comma delimited format used in spreadsheet applications
http://www.bom.gov.au/fwo/IDN60801/IDN60801.94759.axf

JavaScript Object Notation format (JSON) in row-major order
http://www.bom.gov.au/fwo/IDN60801/IDN60801.94759.json